sensor_id;sensor_type;location;lat;lon;timestamp;temperature;humidity
44121;DHT22;29783;52.504;13.478;2023-08-17T00:00:03;20.00;81.40
44121;DHT22;29783;52.504;13.478;2023-08-17T00:02:29;19.90;81.50
44121;DHT22;29783;52.504;13.478;2023-08-17T00:04:57;19.90;81.40
44121;DHT22;29783;52.504;13.478;2023-08-17T00:07:23;19.90;81.70
44121;DHT22;29783;52.504;13.478;2023-08-17T00:09:49;19.90;81.30
44121;DHT22;29783;52.504;13.478;2023-08-17T00:12:14;20.00;81.30
44121;DHT22;29783;52.504;13.478;2023-08-17T00:14:40;19.90;81.50
44121;DHT22;29783;52.504;13.478;2023-08-17T00:17:05;19.80;81.90
44121;DHT22;29783;52.504;13.478;2023-08-17T00:19:31;19.70;82.20
44121;DHT22;29783;52.504;13.478;2023-08-17T00:21:57;19.70;82.10
44121;DHT22;29783;52.504;13.478;2023-08-17T00:24:22;19.70;82.40
44121;DHT22;29783;52.504;13.478;2023-08-17T00:26:48;19.60;82.60
44121;DHT22;29783;52.504;13.478;2023-08-17T00:29:14;19.60;82.70
44121;DHT22;29783;52.504;13.478;2023-08-17T00:31:41;19.60;82.60
44121;DHT22;29783;52.504;13.478;2023-08-17T00:34:06;19.60;82.70
44121;DHT22;29783;52.504;13.478;2023-08-17T00:36:32;19.60;82.70
44121;DHT22;29783;52.504;13.478;2023-08-17T00:38:58;19.50;82.80
44121;DHT22;29783;52.504;13.478;2023-08-17T00:41:23;19.40;82.90
44121;DHT22;29783;52.504;13.478;2023-08-17T00:43:49;19.40;83.20
44121;DHT22;29783;52.504;13.478;2023-08-17T00:46:15;19.40;83.00
44121;DHT22;29783;52.504;13.478;2023-08-17T00:48:41;19.40;83.20
44121;DHT22;29783;52.504;13.478;2023-08-17T00:51:07;19.30;83.50
44121;DHT22;29783;52.504;13.478;2023-08-17T00:53:33;19.30;83.40
44121;DHT22;29783;52.504;13.478;2023-08-17T00:56:00;19.30;83.20
44121;DHT22;29783;52.504;13.478;2023-08-17T00:58:27;19.30;83.20
44121;DHT22;29783;52.504;13.478;2023-08-17T01:00:53;19.30;83.00
44121;DHT22;29783;52.504;13.478;2023-08-17T01:03:20;19.30;83.10
44121;DHT22;29783;52.504;13.478;2023-08-17T01:05:47;19.20;83.20
44121;DHT22;29783;52.504;13.478;2023-08-17T01:08:13;19.20;83.00
44121;DHT22;29783;52.504;13.478;2023-08-17T01:13:35;19.30;82.70
44121;DHT22;29783;52.504;13.478;2023-08-17T01:16:05;19.20;82.70
44121;DHT22;29783;52.504;13.478;2023-08-17T01:18:37;19.20;83.00
44121;DHT22;29783;52.504;13.478;2023-08-17T01:21:06;19.20;83.50
44121;DHT22;29783;52.504;13.478;2023-08-17T01:23:34;19.10;83.40
44121;DHT22;29783;52.504;13.478;2023-08-17T01:25:59;19.20;83.10
44121;DHT22;29783;52.504;13.478;2023-08-17T01:28:26;19.10;83.10
44121;DHT22;29783;52.504;13.478;2023-08-17T01:31:06;19.20;83.10
44121;DHT22;29783;52.504;13.478;2023-08-17T01:33:44;19.10;83.00
44121;DHT22;29783;52.504;13.478;2023-08-17T01:36:32;19.10;83.30
44121;DHT22;29783;52.504;13.478;2023-08-17T01:39:00;19.10;83.20
44121;DHT22;29783;52.504;13.478;2023-08-17T01:41:27;19.10;83.40
44121;DHT22;29783;52.504;13.478;2023-08-17T01:43:54;19.00;83.60
44121;DHT22;29783;52.504;13.478;2023-08-17T01:46:21;18.90;83.50
44121;DHT22;29783;52.504;13.478;2023-08-17T01:48:46;18.90;83.80
44121;DHT22;29783;52.504;13.478;2023-08-17T01:51:19;18.90;83.70
44121;DHT22;29783;52.504;13.478;2023-08-17T01:53:45;18.80;84.10
44121;DHT22;29783;52.504;13.478;2023-08-17T01:56:11;18.80;84.00
44121;DHT22;29783;52.504;13.478;2023-08-17T01:58:37;18.80;84.10
44121;DHT22;29783;52.504;13.478;2023-08-17T02:01:02;18.70;84.30
44121;DHT22;29783;52.504;13.478;2023-08-17T02:03:28;18.70;84.20
44121;DHT22;29783;52.504;13.478;2023-08-17T02:05:56;18.70;84.20
44121;DHT22;29783;52.504;13.478;2023-08-17T02:08:22;18.70;84.40
44121;DHT22;29783;52.504;13.478;2023-08-17T02:10:48;18.70;84.40
44121;DHT22;29783;52.504;13.478;2023-08-17T02:13:15;18.70;84.60
44121;DHT22;29783;52.504;13.478;2023-08-17T02:15:40;18.70;84.70
44121;DHT22;29783;52.504;13.478;2023-08-17T02:18:06;18.70;84.70
44121;DHT22;29783;52.504;13.478;2023-08-17T02:20:32;18.70;84.50
44121;DHT22;29783;52.504;13.478;2023-08-17T02:22:58;18.70;84.60
44121;DHT22;29783;52.504;13.478;2023-08-17T02:25:23;18.70;84.60
44121;DHT22;29783;52.504;13.478;2023-08-17T02:27:49;18.60;84.80
44121;DHT22;29783;52.504;13.478;2023-08-17T02:30:15;18.60;84.80
44121;DHT22;29783;52.504;13.478;2023-08-17T02:32:40;18.60;84.90
44121;DHT22;29783;52.504;13.478;2023-08-17T02:35:07;18.60;84.80
44121;DHT22;29783;52.504;13.478;2023-08-17T02:37:33;18.60;85.00
44121;DHT22;29783;52.504;13.478;2023-08-17T02:39:59;18.50;84.80
44121;DHT22;29783;52.504;13.478;2023-08-17T02:42:24;18.50;84.60
44121;DHT22;29783;52.504;13.478;2023-08-17T02:44:50;18.60;84.60
44121;DHT22;29783;52.504;13.478;2023-08-17T02:47:16;18.60;84.60
44121;DHT22;29783;52.504;13.478;2023-08-17T02:49:41;18.50;84.60
44121;DHT22;29783;52.504;13.478;2023-08-17T02:52:07;18.50;84.40
44121;DHT22;29783;52.504;13.478;2023-08-17T02:54:33;18.50;84.50
44121;DHT22;29783;52.504;13.478;2023-08-17T02:56:59;18.50;84.40
44121;DHT22;29783;52.504;13.478;2023-08-17T02:59:25;18.50;84.70
44121;DHT22;29783;52.504;13.478;2023-08-17T03:01:50;18.50;84.40
44121;DHT22;29783;52.504;13.478;2023-08-17T03:04:16;18.40;84.40
44121;DHT22;29783;52.504;13.478;2023-08-17T03:06:42;18.50;84.20
44121;DHT22;29783;52.504;13.478;2023-08-17T03:09:07;18.60;83.90
44121;DHT22;29783;52.504;13.478;2023-08-17T03:11:33;18.60;83.60
44121;DHT22;29783;52.504;13.478;2023-08-17T03:13:59;18.50;83.40
44121;DHT22;29783;52.504;13.478;2023-08-17T03:16:27;18.50;83.50
44121;DHT22;29783;52.504;13.478;2023-08-17T03:18:53;18.60;83.20
44121;DHT22;29783;52.504;13.478;2023-08-17T03:21:19;18.60;83.10
44121;DHT22;29783;52.504;13.478;2023-08-17T03:23:45;18.60;82.80
44121;DHT22;29783;52.504;13.478;2023-08-17T03:26:11;18.70;82.70
44121;DHT22;29783;52.504;13.478;2023-08-17T03:28:36;18.60;82.60
44121;DHT22;29783;52.504;13.478;2023-08-17T03:31:03;18.60;82.70
44121;DHT22;29783;52.504;13.478;2023-08-17T03:33:30;18.60;82.10
44121;DHT22;29783;52.504;13.478;2023-08-17T03:35:57;18.60;82.00
44121;DHT22;29783;52.504;13.478;2023-08-17T03:38:22;18.60;81.90
44121;DHT22;29783;52.504;13.478;2023-08-17T03:40:49;18.70;81.90
44121;DHT22;29783;52.504;13.478;2023-08-17T03:43:15;18.70;81.60
44121;DHT22;29783;52.504;13.478;2023-08-17T03:45:41;18.60;81.60
44121;DHT22;29783;52.504;13.478;2023-08-17T03:48:06;18.60;81.70
44121;DHT22;29783;52.504;13.478;2023-08-17T03:50:33;18.60;81.80
44121;DHT22;29783;52.504;13.478;2023-08-17T03:52:59;18.50;82.00
44121;DHT22;29783;52.504;13.478;2023-08-17T03:55:25;18.50;81.30
44121;DHT22;29783;52.504;13.478;2023-08-17T03:57:50;18.60;81.10
44121;DHT22;29783;52.504;13.478;2023-08-17T04:00:16;18.60;81.00
44121;DHT22;29783;52.504;13.478;2023-08-17T04:02:42;18.60;80.90
44121;DHT22;29783;52.504;13.478;2023-08-17T04:05:08;18.60;80.90
44121;DHT22;29783;52.504;13.478;2023-08-17T04:07:33;18.60;80.70
44121;DHT22;29783;52.504;13.478;2023-08-17T04:09:59;18.60;80.50
44121;DHT22;29783;52.504;13.478;2023-08-17T04:12:25;18.70;80.30
44121;DHT22;29783;52.504;13.478;2023-08-17T04:14:51;18.70;79.40
44121;DHT22;29783;52.504;13.478;2023-08-17T04:17:18;18.70;79.50
44121;DHT22;29783;52.504;13.478;2023-08-17T04:19:44;18.70;79.50
44121;DHT22;29783;52.504;13.478;2023-08-17T04:22:09;18.80;79.00
44121;DHT22;29783;52.504;13.478;2023-08-17T04:24:35;18.80;78.80
44121;DHT22;29783;52.504;13.478;2023-08-17T04:27:01;18.90;78.50
44121;DHT22;29783;52.504;13.478;2023-08-17T04:29:26;19.00;78.10
44121;DHT22;29783;52.504;13.478;2023-08-17T04:31:52;19.00;78.10
44121;DHT22;29783;52.504;13.478;2023-08-17T04:34:18;19.00;78.30
44121;DHT22;29783;52.504;13.478;2023-08-17T04:36:44;19.00;78.00
44121;DHT22;29783;52.504;13.478;2023-08-17T04:39:10;19.10;77.50
44121;DHT22;29783;52.504;13.478;2023-08-17T04:41:36;19.10;77.30
44121;DHT22;29783;52.504;13.478;2023-08-17T04:44:02;19.20;77.00
44121;DHT22;29783;52.504;13.478;2023-08-17T04:46:28;19.20;77.10
44121;DHT22;29783;52.504;13.478;2023-08-17T04:48:54;19.20;76.40
44121;DHT22;29783;52.504;13.478;2023-08-17T04:51:19;19.20;76.70
44121;DHT22;29783;52.504;13.478;2023-08-17T04:53:45;19.30;77.10
44121;DHT22;29783;52.504;13.478;2023-08-17T04:56:11;19.40;76.60
44121;DHT22;29783;52.504;13.478;2023-08-17T04:58:36;19.50;76.20
44121;DHT22;29783;52.504;13.478;2023-08-17T05:01:03;19.50;75.70
44121;DHT22;29783;52.504;13.478;2023-08-17T05:03:29;19.60;75.80
44121;DHT22;29783;52.504;13.478;2023-08-17T05:05:56;19.70;75.40
44121;DHT22;29783;52.504;13.478;2023-08-17T05:08:22;19.70;74.80
44121;DHT22;29783;52.504;13.478;2023-08-17T05:10:48;19.80;74.70
44121;DHT22;29783;52.504;13.478;2023-08-17T05:13:14;19.80;74.60
44121;DHT22;29783;52.504;13.478;2023-08-17T05:15:40;20.00;74.40
44121;DHT22;29783;52.504;13.478;2023-08-17T05:18:05;19.90;73.80
44121;DHT22;29783;52.504;13.478;2023-08-17T05:20:31;20.00;73.60
44121;DHT22;29783;52.504;13.478;2023-08-17T05:22:57;20.10;73.80
44121;DHT22;29783;52.504;13.478;2023-08-17T05:25:22;20.20;73.60
44121;DHT22;29783;52.504;13.478;2023-08-17T05:27:48;20.20;73.80
44121;DHT22;29783;52.504;13.478;2023-08-17T05:30:17;20.20;73.00
44121;DHT22;29783;52.504;13.478;2023-08-17T05:32:42;20.30;73.40
44121;DHT22;29783;52.504;13.478;2023-08-17T05:35:08;20.40;73.50
44121;DHT22;29783;52.504;13.478;2023-08-17T05:37:34;20.40;72.50
44121;DHT22;29783;52.504;13.478;2023-08-17T05:39:59;20.60;72.80
44121;DHT22;29783;52.504;13.478;2023-08-17T05:42:25;20.60;72.40
44121;DHT22;29783;52.504;13.478;2023-08-17T05:44:51;20.70;71.80
44121;DHT22;29783;52.504;13.478;2023-08-17T05:47:16;20.70;71.70
44121;DHT22;29783;52.504;13.478;2023-08-17T05:49:44;20.90;71.30
44121;DHT22;29783;52.504;13.478;2023-08-17T05:52:10;20.90;71.30
44121;DHT22;29783;52.504;13.478;2023-08-17T05:54:36;21.00;71.50
44121;DHT22;29783;52.504;13.478;2023-08-17T05:57:02;21.00;71.20
44121;DHT22;29783;52.504;13.478;2023-08-17T05:59:28;21.20;70.90
44121;DHT22;29783;52.504;13.478;2023-08-17T06:01:54;21.20;70.60
44121;DHT22;29783;52.504;13.478;2023-08-17T06:04:19;21.20;70.30
44121;DHT22;29783;52.504;13.478;2023-08-17T06:06:46;21.30;70.20
44121;DHT22;29783;52.504;13.478;2023-08-17T06:09:12;21.40;69.20
44121;DHT22;29783;52.504;13.478;2023-08-17T06:11:37;21.40;69.00
44121;DHT22;29783;52.504;13.478;2023-08-17T06:14:04;21.30;69.20
44121;DHT22;29783;52.504;13.478;2023-08-17T06:16:29;21.20;69.00
44121;DHT22;29783;52.504;13.478;2023-08-17T06:18:55;21.10;69.70
44121;DHT22;29783;52.504;13.478;2023-08-17T06:21:21;21.00;70.60
44121;DHT22;29783;52.504;13.478;2023-08-17T06:23:47;20.90;71.30
44121;DHT22;29783;52.504;13.478;2023-08-17T06:26:12;20.80;71.60
44121;DHT22;29783;52.504;13.478;2023-08-17T06:28:38;20.90;71.40
44121;DHT22;29783;52.504;13.478;2023-08-17T06:31:04;20.80;71.50
44121;DHT22;29783;52.504;13.478;2023-08-17T06:33:30;20.70;71.90
44121;DHT22;29783;52.504;13.478;2023-08-17T06:35:55;20.70;72.40
44121;DHT22;29783;52.504;13.478;2023-08-17T06:38:21;20.70;72.70
44121;DHT22;29783;52.504;13.478;2023-08-17T06:40:46;20.60;73.20
44121;DHT22;29783;52.504;13.478;2023-08-17T06:43:13;20.70;71.90
44121;DHT22;29783;52.504;13.478;2023-08-17T06:45:39;20.80;71.40
44121;DHT22;29783;52.504;13.478;2023-08-17T06:48:05;20.80;71.30
44121;DHT22;29783;52.504;13.478;2023-08-17T06:50:30;21.00;71.40
44121;DHT22;29783;52.504;13.478;2023-08-17T06:52:56;21.20;70.50
44121;DHT22;29783;52.504;13.478;2023-08-17T06:55:22;21.40;69.60
44121;DHT22;29783;52.504;13.478;2023-08-17T06:57:47;21.60;69.50
44121;DHT22;29783;52.504;13.478;2023-08-17T07:00:17;21.70;69.00
44121;DHT22;29783;52.504;13.478;2023-08-17T07:02:46;21.80;68.60
44121;DHT22;29783;52.504;13.478;2023-08-17T07:05:13;21.80;69.30
44121;DHT22;29783;52.504;13.478;2023-08-17T07:07:39;21.90;68.70
44121;DHT22;29783;52.504;13.478;2023-08-17T07:10:05;22.10;67.90
44121;DHT22;29783;52.504;13.478;2023-08-17T07:12:32;22.20;67.00
44121;DHT22;29783;52.504;13.478;2023-08-17T07:14:58;22.30;67.00
44121;DHT22;29783;52.504;13.478;2023-08-17T07:17:23;22.60;66.70
44121;DHT22;29783;52.504;13.478;2023-08-17T07:19:49;22.70;65.90
44121;DHT22;29783;52.504;13.478;2023-08-17T07:22:15;22.70;66.90
44121;DHT22;29783;52.504;13.478;2023-08-17T07:24:42;22.70;65.90
44121;DHT22;29783;52.504;13.478;2023-08-17T07:27:07;22.80;66.20
44121;DHT22;29783;52.504;13.478;2023-08-17T07:29:33;23.00;65.50
44121;DHT22;29783;52.504;13.478;2023-08-17T07:31:58;23.20;64.90
44121;DHT22;29783;52.504;13.478;2023-08-17T07:34:27;23.10;64.50
44121;DHT22;29783;52.504;13.478;2023-08-17T07:36:53;23.10;64.90
44121;DHT22;29783;52.504;13.478;2023-08-17T07:39:19;22.90;66.30
44121;DHT22;29783;52.504;13.478;2023-08-17T07:41:44;22.70;66.60
44121;DHT22;29783;52.504;13.478;2023-08-17T07:44:10;22.70;66.90
44121;DHT22;29783;52.504;13.478;2023-08-17T07:46:36;23.00;65.30
44121;DHT22;29783;52.504;13.478;2023-08-17T07:49:02;23.10;65.20
44121;DHT22;29783;52.504;13.478;2023-08-17T07:51:28;23.10;65.40
44121;DHT22;29783;52.504;13.478;2023-08-17T07:53:55;23.20;65.60
44121;DHT22;29783;52.504;13.478;2023-08-17T07:56:20;23.20;66.50
44121;DHT22;29783;52.504;13.478;2023-08-17T07:58:47;23.40;66.00
44121;DHT22;29783;52.504;13.478;2023-08-17T08:01:13;23.80;64.40
44121;DHT22;29783;52.504;13.478;2023-08-17T08:03:38;23.90;62.90
44121;DHT22;29783;52.504;13.478;2023-08-17T08:06:04;24.10;62.50
44121;DHT22;29783;52.504;13.478;2023-08-17T08:08:30;24.10;62.70
44121;DHT22;29783;52.504;13.478;2023-08-17T08:10:55;23.90;63.60
44121;DHT22;29783;52.504;13.478;2023-08-17T08:13:21;23.80;63.20
44121;DHT22;29783;52.504;13.478;2023-08-17T08:15:47;23.80;64.20
44121;DHT22;29783;52.504;13.478;2023-08-17T08:18:12;23.90;64.20
44121;DHT22;29783;52.504;13.478;2023-08-17T08:20:39;24.20;63.00
44121;DHT22;29783;52.504;13.478;2023-08-17T08:23:05;24.40;62.80
44121;DHT22;29783;52.504;13.478;2023-08-17T08:25:30;24.60;61.80
44121;DHT22;29783;52.504;13.478;2023-08-17T08:27:56;24.80;61.60
44121;DHT22;29783;52.504;13.478;2023-08-17T08:30:21;24.80;62.00
44121;DHT22;29783;52.504;13.478;2023-08-17T08:32:47;24.90;61.80
44121;DHT22;29783;52.504;13.478;2023-08-17T08:35:13;24.90;61.80
44121;DHT22;29783;52.504;13.478;2023-08-17T08:37:39;24.90;61.90
44121;DHT22;29783;52.504;13.478;2023-08-17T08:40:11;24.90;61.30
44121;DHT22;29783;52.504;13.478;2023-08-17T08:42:40;24.90;61.70
44121;DHT22;29783;52.504;13.478;2023-08-17T08:45:06;24.90;62.20
44121;DHT22;29783;52.504;13.478;2023-08-17T08:47:34;25.10;62.60
44121;DHT22;29783;52.504;13.478;2023-08-17T08:50:04;25.20;62.10
44121;DHT22;29783;52.504;13.478;2023-08-17T08:52:42;25.20;61.80
44121;DHT22;29783;52.504;13.478;2023-08-17T08:55:12;25.00;62.30
44121;DHT22;29783;52.504;13.478;2023-08-17T08:57:41;24.90;63.60
44121;DHT22;29783;52.504;13.478;2023-08-17T09:00:08;25.00;63.30
44121;DHT22;29783;52.504;13.478;2023-08-17T09:02:35;25.00;63.90
44121;DHT22;29783;52.504;13.478;2023-08-17T09:05:02;24.80;63.90
44121;DHT22;29783;52.504;13.478;2023-08-17T09:07:29;24.90;63.90
44121;DHT22;29783;52.504;13.478;2023-08-17T09:09:56;24.90;63.90
44121;DHT22;29783;52.504;13.478;2023-08-17T09:12:22;24.70;64.30
44121;DHT22;29783;52.504;13.478;2023-08-17T09:14:48;24.40;65.30
44121;DHT22;29783;52.504;13.478;2023-08-17T09:17:13;24.30;65.60
44121;DHT22;29783;52.504;13.478;2023-08-17T09:19:39;24.20;65.40
44121;DHT22;29783;52.504;13.478;2023-08-17T09:22:05;24.10;67.20
44121;DHT22;29783;52.504;13.478;2023-08-17T09:24:37;24.20;67.70
44121;DHT22;29783;52.504;13.478;2023-08-17T09:27:03;24.20;68.00
44121;DHT22;29783;52.504;13.478;2023-08-17T09:29:29;24.40;67.10
44121;DHT22;29783;52.504;13.478;2023-08-17T09:32:04;24.60;67.10
44121;DHT22;29783;52.504;13.478;2023-08-17T09:34:32;24.80;67.20
44121;DHT22;29783;52.504;13.478;2023-08-17T09:37:03;25.00;66.00
44121;DHT22;29783;52.504;13.478;2023-08-17T09:39:29;25.40;65.40
44121;DHT22;29783;52.504;13.478;2023-08-17T09:41:56;25.80;63.60
44121;DHT22;29783;52.504;13.478;2023-08-17T09:44:22;26.20;62.80
44121;DHT22;29783;52.504;13.478;2023-08-17T09:46:48;26.40;60.60
44121;DHT22;29783;52.504;13.478;2023-08-17T09:49:13;26.40;61.40
44121;DHT22;29783;52.504;13.478;2023-08-17T09:51:43;26.40;61.00
44121;DHT22;29783;52.504;13.478;2023-08-17T09:54:21;26.60;60.60
44121;DHT22;29783;52.504;13.478;2023-08-17T09:56:50;26.90;59.40
44121;DHT22;29783;52.504;13.478;2023-08-17T09:59:16;27.00;59.40
44121;DHT22;29783;52.504;13.478;2023-08-17T10:01:42;26.70;60.20
44121;DHT22;29783;52.504;13.478;2023-08-17T10:04:08;26.90;59.50
44121;DHT22;29783;52.504;13.478;2023-08-17T10:06:35;26.90;60.20
44121;DHT22;29783;52.504;13.478;2023-08-17T10:09:02;26.90;60.20
44121;DHT22;29783;52.504;13.478;2023-08-17T10:11:31;27.00;59.50
44121;DHT22;29783;52.504;13.478;2023-08-17T10:14:02;26.70;59.80
44121;DHT22;29783;52.504;13.478;2023-08-17T10:16:44;26.50;61.50
44121;DHT22;29783;52.504;13.478;2023-08-17T10:19:37;26.50;61.70
44121;DHT22;29783;52.504;13.478;2023-08-17T10:22:17;26.20;62.20
44121;DHT22;29783;52.504;13.478;2023-08-17T10:24:44;26.10;62.10
44121;DHT22;29783;52.504;13.478;2023-08-17T10:27:10;25.70;63.70
44121;DHT22;29783;52.504;13.478;2023-08-17T10:29:38;25.40;64.50
44121;DHT22;29783;52.504;13.478;2023-08-17T10:32:06;25.60;64.40
44121;DHT22;29783;52.504;13.478;2023-08-17T10:34:34;25.20;65.40
44121;DHT22;29783;52.504;13.478;2023-08-17T10:37:00;25.20;65.50
44121;DHT22;29783;52.504;13.478;2023-08-17T10:39:28;25.40;65.00
44121;DHT22;29783;52.504;13.478;2023-08-17T10:41:54;25.70;64.90
44121;DHT22;29783;52.504;13.478;2023-08-17T10:44:40;25.90;63.90
44121;DHT22;29783;52.504;13.478;2023-08-17T10:47:26;26.10;63.50
44121;DHT22;29783;52.504;13.478;2023-08-17T10:52:34;26.30;62.30
44121;DHT22;29783;52.504;13.478;2023-08-17T10:55:06;26.70;62.00
44121;DHT22;29783;52.504;13.478;2023-08-17T10:57:41;27.00;61.00
44121;DHT22;29783;52.504;13.478;2023-08-17T11:00:23;26.90;61.00
44121;DHT22;29783;52.504;13.478;2023-08-17T11:02:56;27.00;60.80
44121;DHT22;29783;52.504;13.478;2023-08-17T11:05:43;27.20;60.50
44121;DHT22;29783;52.504;13.478;2023-08-17T11:08:30;27.10;60.50
44121;DHT22;29783;52.504;13.478;2023-08-17T11:13:24;26.90;62.70
44121;DHT22;29783;52.504;13.478;2023-08-17T11:15:52;26.90;61.60
44121;DHT22;29783;52.504;13.478;2023-08-17T11:18:18;26.90;61.50
44121;DHT22;29783;52.504;13.478;2023-08-17T11:20:43;27.20;60.90
44121;DHT22;29783;52.504;13.478;2023-08-17T11:23:10;27.20;60.50
44121;DHT22;29783;52.504;13.478;2023-08-17T11:25:37;27.30;60.20
44121;DHT22;29783;52.504;13.478;2023-08-17T11:28:03;27.40;60.90
44121;DHT22;29783;52.504;13.478;2023-08-17T11:30:31;27.40;60.80
44121;DHT22;29783;52.504;13.478;2023-08-17T11:32:59;27.70;60.50
44121;DHT22;29783;52.504;13.478;2023-08-17T11:35:25;27.60;60.70
44121;DHT22;29783;52.504;13.478;2023-08-17T11:37:51;27.70;60.10
44121;DHT22;29783;52.504;13.478;2023-08-17T11:40:17;27.70;60.20
44121;DHT22;29783;52.504;13.478;2023-08-17T11:42:44;27.70;59.90
44121;DHT22;29783;52.504;13.478;2023-08-17T11:45:09;27.70;60.50
44121;DHT22;29783;52.504;13.478;2023-08-17T11:47:37;27.60;60.60
44121;DHT22;29783;52.504;13.478;2023-08-17T11:50:03;27.60;61.00
44121;DHT22;29783;52.504;13.478;2023-08-17T11:52:30;27.50;61.50
44121;DHT22;29783;52.504;13.478;2023-08-17T11:54:58;27.80;60.70
44121;DHT22;29783;52.504;13.478;2023-08-17T11:57:26;27.80;60.70
44121;DHT22;29783;52.504;13.478;2023-08-17T11:59:53;28.00;60.10
44121;DHT22;29783;52.504;13.478;2023-08-17T12:02:21;28.00;60.00
44121;DHT22;29783;52.504;13.478;2023-08-17T12:04:46;27.60;62.10
44121;DHT22;29783;52.504;13.478;2023-08-17T12:07:12;27.70;61.40
44121;DHT22;29783;52.504;13.478;2023-08-17T12:09:38;28.10;60.60
44121;DHT22;29783;52.504;13.478;2023-08-17T12:12:04;28.30;59.40
44121;DHT22;29783;52.504;13.478;2023-08-17T12:14:30;28.40;58.90
44121;DHT22;29783;52.504;13.478;2023-08-17T12:16:55;28.50;59.10
44121;DHT22;29783;52.504;13.478;2023-08-17T12:19:21;28.60;60.20
44121;DHT22;29783;52.504;13.478;2023-08-17T12:21:50;28.60;59.20
44121;DHT22;29783;52.504;13.478;2023-08-17T12:24:16;28.70;58.80
44121;DHT22;29783;52.504;13.478;2023-08-17T12:26:45;29.60;57.50
44121;DHT22;29783;52.504;13.478;2023-08-17T12:29:12;30.50;55.20
44121;DHT22;29783;52.504;13.478;2023-08-17T12:31:38;31.60;52.50
44121;DHT22;29783;52.504;13.478;2023-08-17T12:34:04;32.30;50.90
44121;DHT22;29783;52.504;13.478;2023-08-17T12:36:34;33.10;48.00
44121;DHT22;29783;52.504;13.478;2023-08-17T12:39:05;33.70;46.50
44121;DHT22;29783;52.504;13.478;2023-08-17T12:41:31;33.40;47.10
44121;DHT22;29783;52.504;13.478;2023-08-17T12:43:56;33.20;47.40
44121;DHT22;29783;52.504;13.478;2023-08-17T12:46:25;34.20;45.10
44121;DHT22;29783;52.504;13.478;2023-08-17T12:48:50;34.50;44.80
44121;DHT22;29783;52.504;13.478;2023-08-17T12:51:16;34.80;43.50
44121;DHT22;29783;52.504;13.478;2023-08-17T12:53:41;34.10;44.90
44121;DHT22;29783;52.504;13.478;2023-08-17T12:56:08;33.10;47.30
44121;DHT22;29783;52.504;13.478;2023-08-17T12:58:34;33.30;47.00
44121;DHT22;29783;52.504;13.478;2023-08-17T13:00:59;32.70;48.60
44121;DHT22;29783;52.504;13.478;2023-08-17T13:03:25;32.10;49.20
44121;DHT22;29783;52.504;13.478;2023-08-17T13:05:51;31.60;50.00
44121;DHT22;29783;52.504;13.478;2023-08-17T13:08:16;31.90;49.20
44121;DHT22;29783;52.504;13.478;2023-08-17T13:10:42;32.40;49.00
44121;DHT22;29783;52.504;13.478;2023-08-17T13:13:07;33.60;45.90
44121;DHT22;29783;52.504;13.478;2023-08-17T13:15:33;34.50;45.10
44121;DHT22;29783;52.504;13.478;2023-08-17T13:17:59;35.00;43.80
44121;DHT22;29783;52.504;13.478;2023-08-17T13:20:25;35.90;42.00
44121;DHT22;29783;52.504;13.478;2023-08-17T13:22:51;35.20;43.00
44121;DHT22;29783;52.504;13.478;2023-08-17T13:25:17;34.50;44.40
44121;DHT22;29783;52.504;13.478;2023-08-17T13:27:42;33.90;45.30
44121;DHT22;29783;52.504;13.478;2023-08-17T13:30:08;34.10;45.50
44121;DHT22;29783;52.504;13.478;2023-08-17T13:32:34;35.40;42.90
44121;DHT22;29783;52.504;13.478;2023-08-17T13:35:01;36.50;40.10
44121;DHT22;29783;52.504;13.478;2023-08-17T13:37:27;36.70;39.20
44121;DHT22;29783;52.504;13.478;2023-08-17T13:39:53;35.30;41.60
44121;DHT22;29783;52.504;13.478;2023-08-17T13:42:19;34.60;43.50
44121;DHT22;29783;52.504;13.478;2023-08-17T13:44:45;33.40;46.80
44121;DHT22;29783;52.504;13.478;2023-08-17T13:47:11;32.80;47.90
44121;DHT22;29783;52.504;13.478;2023-08-17T13:49:37;32.30;49.10
44121;DHT22;29783;52.504;13.478;2023-08-17T13:52:03;32.70;48.30
44121;DHT22;29783;52.504;13.478;2023-08-17T13:54:29;34.10;45.90
44121;DHT22;29783;52.504;13.478;2023-08-17T13:56:55;35.10;43.90
44121;DHT22;29783;52.504;13.478;2023-08-17T13:59:20;36.30;40.20
44121;DHT22;29783;52.504;13.478;2023-08-17T14:01:46;36.60;40.50
44121;DHT22;29783;52.504;13.478;2023-08-17T14:04:11;37.20;39.20
44121;DHT22;29783;52.504;13.478;2023-08-17T14:06:38;37.50;38.10
44121;DHT22;29783;52.504;13.478;2023-08-17T14:09:04;36.60;39.90
44121;DHT22;29783;52.504;13.478;2023-08-17T14:11:30;35.80;41.80
44121;DHT22;29783;52.504;13.478;2023-08-17T14:13:56;36.00;41.60
44121;DHT22;29783;52.504;13.478;2023-08-17T14:16:21;36.10;41.10
44121;DHT22;29783;52.504;13.478;2023-08-17T14:18:47;35.40;42.50
44121;DHT22;29783;52.504;13.478;2023-08-17T14:21:13;34.20;44.70
44121;DHT22;29783;52.504;13.478;2023-08-17T14:23:39;33.50;45.80
44121;DHT22;29783;52.504;13.478;2023-08-17T14:26:05;33.70;45.30
44121;DHT22;29783;52.504;13.478;2023-08-17T14:28:31;34.20;44.30
44121;DHT22;29783;52.504;13.478;2023-08-17T14:30:56;34.00;44.90
44121;DHT22;29783;52.504;13.478;2023-08-17T14:33:22;34.50;43.80
44121;DHT22;29783;52.504;13.478;2023-08-17T14:35:48;35.60;42.40
44121;DHT22;29783;52.504;13.478;2023-08-17T14:38:14;36.90;39.70
44121;DHT22;29783;52.504;13.478;2023-08-17T14:40:44;38.30;37.40
44121;DHT22;29783;52.504;13.478;2023-08-17T14:43:13;37.70;38.40
44121;DHT22;29783;52.504;13.478;2023-08-17T14:45:43;36.10;40.50
44121;DHT22;29783;52.504;13.478;2023-08-17T14:48:09;35.10;42.60
44121;DHT22;29783;52.504;13.478;2023-08-17T14:50:35;34.10;44.70
44121;DHT22;29783;52.504;13.478;2023-08-17T14:53:02;33.60;45.80
44121;DHT22;29783;52.504;13.478;2023-08-17T14:55:31;33.10;46.80
44121;DHT22;29783;52.504;13.478;2023-08-17T14:57:57;33.20;46.40
44121;DHT22;29783;52.504;13.478;2023-08-17T15:00:23;34.50;45.30
44121;DHT22;29783;52.504;13.478;2023-08-17T15:02:49;35.70;42.50
44121;DHT22;29783;52.504;13.478;2023-08-17T15:05:15;36.50;40.90
44121;DHT22;29783;52.504;13.478;2023-08-17T15:07:41;37.30;39.20
44121;DHT22;29783;52.504;13.478;2023-08-17T15:10:07;37.10;39.00
44121;DHT22;29783;52.504;13.478;2023-08-17T15:12:32;37.90;37.60
44121;DHT22;29783;52.504;13.478;2023-08-17T15:14:58;36.50;39.90
44121;DHT22;29783;52.504;13.478;2023-08-17T15:17:24;35.30;42.20
44121;DHT22;29783;52.504;13.478;2023-08-17T15:19:49;34.50;44.30